sensor_id;sensor_type;location;lat;lon;timestamp;P1;durP1;ratioP1;P2;durP2;ratioP2
62584;SDS011;48643;51.670;5.808;2023-04-03T00:00:31;7.32;;;3.60;;
62584;SDS011;48643;51.670;5.808;2023-04-03T00:02:58;5.15;;;3.28;;
62584;SDS011;48643;51.670;5.808;2023-04-03T00:05:25;4.38;;;2.92;;
62584;SDS011;48643;51.670;5.808;2023-04-03T00:07:52;5.05;;;3.40;;
62584;SDS011;48643;51.670;5.808;2023-04-03T00:10:19;5.30;;;3.20;;
62584;SDS011;48643;51.670;5.808;2023-04-03T00:12:46;5.03;;;2.95;;
62584;SDS011;48643;51.670;5.808;2023-04-03T00:15:13;8.07;;;3.40;;
62584;SDS011;48643;51.670;5.808;2023-04-03T00:17:39;4.25;;;3.10;;
62584;SDS011;48643;51.670;5.808;2023-04-03T00:20:06;5.80;;;3.42;;
62584;SDS011;48643;51.670;5.808;2023-04-03T00:22:34;5.60;;;3.20;;
62584;SDS011;48643;51.670;5.808;2023-04-03T00:25:01;5.25;;;3.30;;
62584;SDS011;48643;51.670;5.808;2023-04-03T00:27:27;7.45;;;3.28;;
62584;SDS011;48643;51.670;5.808;2023-04-03T00:29:54;5.28;;;3.10;;
62584;SDS011;48643;51.670;5.808;2023-04-03T00:32:21;4.75;;;3.20;;
62584;SDS011;48643;51.670;5.808;2023-04-03T00:34:48;4.80;;;2.95;;
62584;SDS011;48643;51.670;5.808;2023-04-03T00:37:15;5.60;;;3.38;;
62584;SDS011;48643;51.670;5.808;2023-04-03T00:39:41;5.65;;;3.25;;
62584;SDS011;48643;51.670;5.808;2023-04-03T00:42:08;5.40;;;3.10;;
62584;SDS011;48643;51.670;5.808;2023-04-03T00:47:02;4.30;;;3.00;;
62584;SDS011;48643;51.670;5.808;2023-04-03T00:49:31;5.05;;;3.10;;
62584;SDS011;48643;51.670;5.808;2023-04-03T00:51:58;6.20;;;3.10;;
62584;SDS011;48643;51.670;5.808;2023-04-03T00:54:25;4.65;;;2.90;;
62584;SDS011;48643;51.670;5.808;2023-04-03T00:56:53;4.03;;;2.60;;
62584;SDS011;48643;51.670;5.808;2023-04-03T00:59:22;4.90;;;3.03;;
62584;SDS011;48643;51.670;5.808;2023-04-03T01:01:54;4.57;;;2.85;;
62584;SDS011;48643;51.670;5.808;2023-04-03T01:04:41;4.75;;;2.95;;
62584;SDS011;48643;51.670;5.808;2023-04-03T01:09:42;5.35;;;2.80;;
62584;SDS011;48643;51.670;5.808;2023-04-03T01:12:29;4.47;;;2.88;;
62584;SDS011;48643;51.670;5.808;2023-04-03T01:15:02;4.57;;;3.10;;
62584;SDS011;48643;51.670;5.808;2023-04-03T01:17:38;5.15;;;2.90;;
62584;SDS011;48643;51.670;5.808;2023-04-03T01:25:41;4.93;;;2.90;;
62584;SDS011;48643;51.670;5.808;2023-04-03T01:28:11;4.73;;;2.80;;
62584;SDS011;48643;51.670;5.808;2023-04-03T01:34:07;4.03;;;2.80;;
62584;SDS011;48643;51.670;5.808;2023-04-03T01:36:34;4.82;;;2.80;;
62584;SDS011;48643;51.670;5.808;2023-04-03T01:39:01;6.93;;;3.00;;
62584;SDS011;48643;51.670;5.808;2023-04-03T01:41:28;5.85;;;2.78;;
62584;SDS011;48643;51.670;5.808;2023-04-03T01:44:04;3.78;;;2.35;;
62584;SDS011;48643;51.670;5.808;2023-04-03T01:46:31;4.32;;;2.67;;
62584;SDS011;48643;51.670;5.808;2023-04-03T01:48:58;7.55;;;2.85;;
62584;SDS011;48643;51.670;5.808;2023-04-03T01:51:25;6.22;;;2.70;;
62584;SDS011;48643;51.670;5.808;2023-04-03T01:53:51;3.60;;;2.65;;
62584;SDS011;48643;51.670;5.808;2023-04-03T01:56:18;7.05;;;2.72;;
62584;SDS011;48643;51.670;5.808;2023-04-03T01:58:47;8.07;;;2.80;;
62584;SDS011;48643;51.670;5.808;2023-04-03T02:01:14;4.80;;;2.85;;
62584;SDS011;48643;51.670;5.808;2023-04-03T02:03:41;5.05;;;2.67;;
62584;SDS011;48643;51.670;5.808;2023-04-03T02:06:08;5.47;;;2.97;;
62584;SDS011;48643;51.670;5.808;2023-04-03T02:08:37;4.03;;;2.75;;
62584;SDS011;48643;51.670;5.808;2023-04-03T02:11:05;3.40;;;2.60;;
62584;SDS011;48643;51.670;5.808;2023-04-03T02:13:32;3.80;;;2.63;;
62584;SDS011;48643;51.670;5.808;2023-04-03T02:15:59;6.15;;;2.85;;
62584;SDS011;48643;51.670;5.808;2023-04-03T02:18:31;5.05;;;2.90;;
62584;SDS011;48643;51.670;5.808;2023-04-03T02:20:58;5.20;;;2.80;;
62584;SDS011;48643;51.670;5.808;2023-04-03T02:23:25;4.40;;;2.50;;
62584;SDS011;48643;51.670;5.808;2023-04-03T02:25:52;6.43;;;2.50;;
62584;SDS011;48643;51.670;5.808;2023-04-03T02:28:21;3.72;;;2.38;;
62584;SDS011;48643;51.670;5.808;2023-04-03T02:30:48;5.88;;;2.65;;
62584;SDS011;48643;51.670;5.808;2023-04-03T02:33:15;5.00;;;2.58;;
62584;SDS011;48643;51.670;5.808;2023-04-03T02:35:42;8.55;;;2.42;;
62584;SDS011;48643;51.670;5.808;2023-04-03T02:38:09;9.75;;;2.40;;
62584;SDS011;48643;51.670;5.808;2023-04-03T02:40:36;7.72;;;2.50;;
62584;SDS011;48643;51.670;5.808;2023-04-03T02:43:04;3.53;;;2.20;;
62584;SDS011;48643;51.670;5.808;2023-04-03T02:45:34;3.92;;;2.30;;
62584;SDS011;48643;51.670;5.808;2023-04-03T02:48:01;7.25;;;2.58;;
62584;SDS011;48643;51.670;5.808;2023-04-03T02:50:28;5.15;;;2.38;;
62584;SDS011;48643;51.670;5.808;2023-04-03T02:52:55;6.47;;;2.33;;
62584;SDS011;48643;51.670;5.808;2023-04-03T02:55:22;3.53;;;2.30;;
62584;SDS011;48643;51.670;5.808;2023-04-03T02:57:52;4.57;;;2.38;;
62584;SDS011;48643;51.670;5.808;2023-04-03T03:00:19;5.82;;;2.30;;
62584;SDS011;48643;51.670;5.808;2023-04-03T03:02:46;4.78;;;2.17;;
62584;SDS011;48643;51.670;5.808;2023-04-03T03:05:14;6.57;;;2.20;;
62584;SDS011;48643;51.670;5.808;2023-04-03T03:07:41;4.43;;;2.10;;
62584;SDS011;48643;51.670;5.808;2023-04-03T03:10:08;4.47;;;2.17;;
62584;SDS011;48643;51.670;5.808;2023-04-03T03:12:35;5.07;;;2.03;;
62584;SDS011;48643;51.670;5.808;2023-04-03T03:15:02;7.05;;;2.33;;
62584;SDS011;48643;51.670;5.808;2023-04-03T03:17:29;9.82;;;2.40;;
62584;SDS011;48643;51.670;5.808;2023-04-03T03:19:56;3.90;;;2.10;;
62584;SDS011;48643;51.670;5.808;2023-04-03T03:22:23;10.15;;;2.30;;
62584;SDS011;48643;51.670;5.808;2023-04-03T03:24:50;3.92;;;2.15;;
62584;SDS011;48643;51.670;5.808;2023-04-03T03:27:16;5.03;;;2.25;;
62584;SDS011;48643;51.670;5.808;2023-04-03T03:29:43;5.50;;;2.00;;
62584;SDS011;48643;51.670;5.808;2023-04-03T03:32:12;6.00;;;2.03;;
62584;SDS011;48643;51.670;5.808;2023-04-03T03:34:39;5.28;;;2.15;;
62584;SDS011;48643;51.670;5.808;2023-04-03T03:37:06;7.07;;;2.30;;
62584;SDS011;48643;51.670;5.808;2023-04-03T03:39:33;4.53;;;2.05;;
62584;SDS011;48643;51.670;5.808;2023-04-03T03:42:00;10.00;;;2.35;;
62584;SDS011;48643;51.670;5.808;2023-04-03T03:44:27;4.20;;;2.10;;
62584;SDS011;48643;51.670;5.808;2023-04-03T03:46:55;3.58;;;2.03;;
62584;SDS011;48643;51.670;5.808;2023-04-03T03:49:22;7.30;;;2.05;;
62584;SDS011;48643;51.670;5.808;2023-04-03T03:51:49;4.43;;;1.70;;
62584;SDS011;48643;51.670;5.808;2023-04-03T03:54:17;2.85;;;1.85;;
62584;SDS011;48643;51.670;5.808;2023-04-03T03:56:43;5.35;;;2.20;;
62584;SDS011;48643;51.670;5.808;2023-04-03T03:59:11;4.47;;;1.83;;
62584;SDS011;48643;51.670;5.808;2023-04-03T04:01:39;3.10;;;1.73;;
62584;SDS011;48643;51.670;5.808;2023-04-03T04:04:06;4.57;;;1.90;;
62584;SDS011;48643;51.670;5.808;2023-04-03T04:06:33;5.45;;;2.15;;
62584;SDS011;48643;51.670;5.808;2023-04-03T04:09:03;4.63;;;1.90;;
62584;SDS011;48643;51.670;5.808;2023-04-03T04:11:30;3.85;;;1.92;;
62584;SDS011;48643;51.670;5.808;2023-04-03T04:13:59;3.97;;;1.95;;
62584;SDS011;48643;51.670;5.808;2023-04-03T04:16:27;5.68;;;1.80;;
62584;SDS011;48643;51.670;5.808;2023-04-03T04:18:59;6.18;;;1.90;;
62584;SDS011;48643;51.670;5.808;2023-04-03T04:21:26;4.07;;;1.67;;
62584;SDS011;48643;51.670;5.808;2023-04-03T04:23:53;3.53;;;1.75;;
62584;SDS011;48643;51.670;5.808;2023-04-03T04:26:20;3.17;;;1.80;;
62584;SDS011;48643;51.670;5.808;2023-04-03T04:28:47;2.88;;;1.88;;
62584;SDS011;48643;51.670;5.808;2023-04-03T04:31:17;4.07;;;1.90;;
62584;SDS011;48643;51.670;5.808;2023-04-03T04:33:44;2.72;;;1.70;;
62584;SDS011;48643;51.670;5.808;2023-04-03T04:36:13;3.33;;;1.70;;
62584;SDS011;48643;51.670;5.808;2023-04-03T04:38:43;5.82;;;1.90;;
62584;SDS011;48643;51.670;5.808;2023-04-03T04:41:10;4.78;;;1.90;;
62584;SDS011;48643;51.670;5.808;2023-04-03T04:43:37;3.80;;;1.80;;
62584;SDS011;48643;51.670;5.808;2023-04-03T04:46:08;4.57;;;1.90;;
62584;SDS011;48643;51.670;5.808;2023-04-03T04:48:42;3.42;;;1.70;;
62584;SDS011;48643;51.670;5.808;2023-04-03T04:51:10;5.45;;;2.00;;
62584;SDS011;48643;51.670;5.808;2023-04-03T04:53:38;4.13;;;1.63;;
62584;SDS011;48643;51.670;5.808;2023-04-03T04:56:05;3.17;;;1.80;;
62584;SDS011;48643;51.670;5.808;2023-04-03T04:58:34;2.88;;;1.83;;
62584;SDS011;48643;51.670;5.808;2023-04-03T05:01:02;3.05;;;1.90;;
62584;SDS011;48643;51.670;5.808;2023-04-03T05:03:34;2.75;;;1.90;;
62584;SDS011;48643;51.670;5.808;2023-04-03T05:06:02;3.75;;;1.90;;
62584;SDS011;48643;51.670;5.808;2023-04-03T05:08:31;2.50;;;1.70;;
62584;SDS011;48643;51.670;5.808;2023-04-03T05:10:59;2.33;;;1.50;;
62584;SDS011;48643;51.670;5.808;2023-04-03T05:13:26;2.42;;;1.60;;
62584;SDS011;48643;51.670;5.808;2023-04-03T05:15:54;4.63;;;1.80;;
62584;SDS011;48643;51.670;5.808;2023-04-03T05:18:22;3.88;;;1.88;;
62584;SDS011;48643;51.670;5.808;2023-04-03T05:20:51;4.22;;;1.90;;
62584;SDS011;48643;51.670;5.808;2023-04-03T05:23:19;6.00;;;1.90;;
62584;SDS011;48643;51.670;5.808;2023-04-03T05:25:46;3.85;;;1.90;;
62584;SDS011;48643;51.670;5.808;2023-04-03T05:30:43;6.68;;;1.70;;
62584;SDS011;48643;51.670;5.808;2023-04-03T05:33:10;3.00;;;1.70;;
62584;SDS011;48643;51.670;5.808;2023-04-03T05:35:46;3.97;;;1.75;;
62584;SDS011;48643;51.670;5.808;2023-04-03T05:38:18;6.03;;;1.98;;
62584;SDS011;48643;51.670;5.808;2023-04-03T05:40:46;2.85;;;1.70;;
62584;SDS011;48643;51.670;5.808;2023-04-03T05:43:13;4.80;;;1.80;;
62584;SDS011;48643;51.670;5.808;2023-04-03T05:45:42;3.43;;;2.03;;
62584;SDS011;48643;51.670;5.808;2023-04-03T05:48:13;2.65;;;1.60;;
62584;SDS011;48643;51.670;5.808;2023-04-03T05:50:41;3.88;;;1.70;;
62584;SDS011;48643;51.670;5.808;2023-04-03T05:53:21;3.55;;;1.80;;
62584;SDS011;48643;51.670;5.808;2023-04-03T05:55:49;3.17;;;1.90;;
62584;SDS011;48643;51.670;5.808;2023-04-03T05:58:16;4.20;;;1.95;;
62584;SDS011;48643;51.670;5.808;2023-04-03T06:00:45;3.50;;;1.80;;
62584;SDS011;48643;51.670;5.808;2023-04-03T06:03:12;2.78;;;1.70;;
62584;SDS011;48643;51.670;5.808;2023-04-03T06:05:39;3.22;;;1.70;;
62584;SDS011;48643;51.670;5.808;2023-04-03T06:08:06;3.97;;;2.03;;
62584;SDS011;48643;51.670;5.808;2023-04-03T06:10:33;4.00;;;1.67;;
62584;SDS011;48643;51.670;5.808;2023-04-03T06:13:00;3.60;;;1.70;;
62584;SDS011;48643;51.670;5.808;2023-04-03T06:15:27;6.20;;;2.10;;
62584;SDS011;48643;51.670;5.808;2023-04-03T06:17:55;7.07;;;1.88;;
62584;SDS011;48643;51.670;5.808;2023-04-03T06:20:22;2.20;;;1.60;;
62584;SDS011;48643;51.670;5.808;2023-04-03T06:22:49;4.68;;;1.80;;
62584;SDS011;48643;51.670;5.808;2023-04-03T06:25:17;8.30;;;2.25;;
62584;SDS011;48643;51.670;5.808;2023-04-03T06:27:45;6.25;;;2.25;;
62584;SDS011;48643;51.670;5.808;2023-04-03T06:30:12;3.80;;;2.00;;
62584;SDS011;48643;51.670;5.808;2023-04-03T06:32:39;6.32;;;2.10;;
62584;SDS011;48643;51.670;5.808;2023-04-03T06:35:06;7.15;;;2.15;;
62584;SDS011;48643;51.670;5.808;2023-04-03T06:37:34;6.75;;;2.00;;
62584;SDS011;48643;51.670;5.808;2023-04-03T06:40:01;17.48;;;2.20;;
62584;SDS011;48643;51.670;5.808;2023-04-03T06:42:29;12.10;;;2.30;;
62584;SDS011;48643;51.670;5.808;2023-04-03T06:45:07;5.55;;;2.15;;
62584;SDS011;48643;51.670;5.808;2023-04-03T06:47:34;7.65;;;2.10;;
62584;SDS011;48643;51.670;5.808;2023-04-03T06:50:01;7.75;;;2.20;;
62584;SDS011;48643;51.670;5.808;2023-04-03T06:52:27;9.68;;;2.70;;
62584;SDS011;48643;51.670;5.808;2023-04-03T06:54:55;9.30;;;2.10;;
62584;SDS011;48643;51.670;5.808;2023-04-03T06:57:25;5.50;;;1.90;;
62584;SDS011;48643;51.670;5.808;2023-04-03T06:59:52;7.80;;;2.13;;
62584;SDS011;48643;51.670;5.808;2023-04-03T07:02:19;33.67;;;3.75;;
62584;SDS011;48643;51.670;5.808;2023-04-03T07:04:47;23.60;;;3.25;;
62584;SDS011;48643;51.670;5.808;2023-04-03T07:07:14;21.27;;;2.80;;
62584;SDS011;48643;51.670;5.808;2023-04-03T07:09:41;15.15;;;2.70;;
62584;SDS011;48643;51.670;5.808;2023-04-03T07:12:10;16.60;;;2.80;;
62584;SDS011;48643;51.670;5.808;2023-04-03T07:14:37;9.48;;;2.38;;
62584;SDS011;48643;51.670;5.808;2023-04-03T07:17:04;16.75;;;2.53;;
62584;SDS011;48643;51.670;5.808;2023-04-03T07:19:31;5.70;;;2.45;;
62584;SDS011;48643;51.670;5.808;2023-04-03T07:21:58;6.57;;;2.20;;
62584;SDS011;48643;51.670;5.808;2023-04-03T07:24:25;15.43;;;2.40;;
62584;SDS011;48643;51.670;5.808;2023-04-03T07:26:52;7.40;;;2.50;;
62584;SDS011;48643;51.670;5.808;2023-04-03T07:29:20;11.20;;;2.40;;
62584;SDS011;48643;51.670;5.808;2023-04-03T07:31:47;9.82;;;2.30;;
62584;SDS011;48643;51.670;5.808;2023-04-03T07:34:15;6.47;;;2.20;;
62584;SDS011;48643;51.670;5.808;2023-04-03T07:36:42;6.30;;;2.20;;
62584;SDS011;48643;51.670;5.808;2023-04-03T07:39:09;9.00;;;2.30;;
62584;SDS011;48643;51.670;5.808;2023-04-03T07:41:37;10.10;;;2.33;;
62584;SDS011;48643;51.670;5.808;2023-04-03T07:44:04;11.05;;;2.47;;
62584;SDS011;48643;51.670;5.808;2023-04-03T07:46:31;9.10;;;2.45;;
62584;SDS011;48643;51.670;5.808;2023-04-03T07:48:58;10.18;;;2.40;;
62584;SDS011;48643;51.670;5.808;2023-04-03T07:51:25;8.18;;;2.47;;
62584;SDS011;48643;51.670;5.808;2023-04-03T07:53:52;6.60;;;2.40;;
62584;SDS011;48643;51.670;5.808;2023-04-03T07:56:20;6.55;;;2.40;;
62584;SDS011;48643;51.670;5.808;2023-04-03T07:58:47;8.65;;;2.50;;
62584;SDS011;48643;51.670;5.808;2023-04-03T08:01:13;8.43;;;2.35;;
62584;SDS011;48643;51.670;5.808;2023-04-03T08:03:40;12.00;;;2.60;;
62584;SDS011;48643;51.670;5.808;2023-04-03T08:06:08;12.70;;;2.70;;
62584;SDS011;48643;51.670;5.808;2023-04-03T08:08:41;13.85;;;2.40;;
62584;SDS011;48643;51.670;5.808;2023-04-03T08:11:09;10.50;;;2.58;;
62584;SDS011;48643;51.670;5.808;2023-04-03T08:13:36;9.63;;;2.30;;
62584;SDS011;48643;51.670;5.808;2023-04-03T08:16:10;13.75;;;2.55;;
62584;SDS011;48643;51.670;5.808;2023-04-03T08:18:39;9.10;;;2.50;;
62584;SDS011;48643;51.670;5.808;2023-04-03T08:21:07;7.28;;;2.22;;
62584;SDS011;48643;51.670;5.808;2023-04-03T08:23:34;10.50;;;2.28;;
62584;SDS011;48643;51.670;5.808;2023-04-03T08:26:05;11.68;;;2.50;;
62584;SDS011;48643;51.670;5.808;2023-04-03T08:28:36;12.75;;;2.60;;
62584;SDS011;48643;51.670;5.808;2023-04-03T08:31:04;12.95;;;2.78;;
62584;SDS011;48643;51.670;5.808;2023-04-03T08:33:32;8.48;;;2.53;;
62584;SDS011;48643;51.670;5.808;2023-04-03T08:36:05;10.50;;;2.42;;
62584;SDS011;48643;51.670;5.808;2023-04-03T08:44:07;15.48;;;2.67;;
62584;SDS011;48643;51.670;5.808;2023-04-03T08:46:46;8.68;;;2.58;;
62584;SDS011;48643;51.670;5.808;2023-04-03T08:49:25;11.77;;;2.58;;
62584;SDS011;48643;51.670;5.808;2023-04-03T08:51:54;13.88;;;2.50;;
62584;SDS011;48643;51.670;5.808;2023-04-03T08:57:04;7.10;;;2.30;;
62584;SDS011;48643;51.670;5.808;2023-04-03T08:59:34;17.35;;;2.47;;
62584;SDS011;48643;51.670;5.808;2023-04-03T09:02:04;8.23;;;2.38;;
62584;SDS011;48643;51.670;5.808;2023-04-03T09:04:40;13.20;;;2.17;;
62584;SDS011;48643;51.670;5.808;2023-04-03T09:07:08;9.65;;;2.20;;
62584;SDS011;48643;51.670;5.808;2023-04-03T09:09:40;9.43;;;2.63;;
62584;SDS011;48643;51.670;5.808;2023-04-03T09:12:17;9.10;;;2.42;;
62584;SDS011;48643;51.670;5.808;2023-04-03T09:22:39;11.27;;;2.55;;
62584;SDS011;48643;51.670;5.808;2023-04-03T09:25:33;7.40;;;2.45;;
62584;SDS011;48643;51.670;5.808;2023-04-03T09:28:03;7.10;;;2.30;;
62584;SDS011;48643;51.670;5.808;2023-04-03T09:30:36;10.35;;;2.47;;
62584;SDS011;48643;51.670;5.808;2023-04-03T09:33:04;7.40;;;2.50;;
62584;SDS011;48643;51.670;5.808;2023-04-03T09:35:34;10.85;;;2.67;;
62584;SDS011;48643;51.670;5.808;2023-04-03T09:40:45;10.15;;;3.15;;
62584;SDS011;48643;51.670;5.808;2023-04-03T09:43:28;5.85;;;2.40;;
62584;SDS011;48643;51.670;5.808;2023-04-03T09:48:55;5.78;;;2.30;;
62584;SDS011;48643;51.670;5.808;2023-04-03T09:51:34;9.23;;;2.33;;
62584;SDS011;48643;51.670;5.808;2023-04-03T09:54:01;4.75;;;2.10;;
62584;SDS011;48643;51.670;5.808;2023-04-03T09:57:08;7.72;;;2.00;;
62584;SDS011;48643;51.670;5.808;2023-04-03T09:59:47;7.65;;;2.50;;
62584;SDS011;48643;51.670;5.808;2023-04-03T10:02:40;10.93;;;2.42;;
62584;SDS011;48643;51.670;5.808;2023-04-03T10:05:27;7.75;;;2.28;;
62584;SDS011;48643;51.670;5.808;2023-04-03T10:08:20;4.47;;;2.00;;
62584;SDS011;48643;51.670;5.808;2023-04-03T10:10:48;7.13;;;2.03;;
62584;SDS011;48643;51.670;5.808;2023-04-03T10:13:17;7.55;;;2.00;;
62584;SDS011;48643;51.670;5.808;2023-04-03T10:15:50;9.38;;;1.95;;
62584;SDS011;48643;51.670;5.808;2023-04-03T10:21:10;11.70;;;2.70;;
62584;SDS011;48643;51.670;5.808;2023-04-03T10:26:44;5.93;;;2.10;;
62584;SDS011;48643;51.670;5.808;2023-04-03T10:32:20;6.22;;;1.50;;
62584;SDS011;48643;51.670;5.808;2023-04-03T10:38:07;6.87;;;1.77;;
62584;SDS011;48643;51.670;5.808;2023-04-03T10:40:59;4.45;;;1.80;;
62584;SDS011;48643;51.670;5.808;2023-04-03T10:43:33;4.95;;;3.20;;
62584;SDS011;48643;51.670;5.808;2023-04-03T10:46:11;5.18;;;3.53;;
62584;SDS011;48643;51.670;5.808;2023-04-03T10:49:05;6.15;;;4.45;;
62584;SDS011;48643;51.670;5.808;2023-04-03T10:51:42;10.32;;;4.18;;
62584;SDS011;48643;51.670;5.808;2023-04-03T10:54:23;3.55;;;2.65;;
62584;SDS011;48643;51.670;5.808;2023-04-03T10:59:41;10.38;;;1.60;;
62584;SDS011;48643;51.670;5.808;2023-04-03T11:02:14;8.80;;;1.70;;
62584;SDS011;48643;51.670;5.808;2023-04-03T11:05:08;8.27;;;1.45;;
62584;SDS011;48643;51.670;5.808;2023-04-03T11:07:47;11.35;;;1.60;;
62584;SDS011;48643;51.670;5.808;2023-04-03T11:10:17;4.43;;;1.33;;
62584;SDS011;48643;51.670;5.808;2023-04-03T11:13:19;8.50;;;1.52;;
62584;SDS011;48643;51.670;5.808;2023-04-03T11:15:54;3.78;;;1.50;;
62584;SDS011;48643;51.670;5.808;2023-04-03T11:18:22;6.43;;;1.25;;
62584;SDS011;48643;51.670;5.808;2023-04-03T11:21:06;5.72;;;1.90;;
62584;SDS011;48643;51.670;5.808;2023-04-03T11:23:54;4.68;;;1.75;;
62584;SDS011;48643;51.670;5.808;2023-04-03T11:26:22;5.28;;;1.58;;
62584;SDS011;48643;51.670;5.808;2023-04-03T11:28:58;4.53;;;1.30;;
62584;SDS011;48643;51.670;5.808;2023-04-03T11:34:33;5.80;;;3.28;;
62584;SDS011;48643;51.670;5.808;2023-04-03T11:37:05;5.13;;;3.60;;
62584;SDS011;48643;51.670;5.808;2023-04-03T11:39:39;6.00;;;2.78;;
62584;SDS011;48643;51.670;5.808;2023-04-03T11:48:00;2.20;;;1.63;;
62584;SDS011;48643;51.670;5.808;2023-04-03T11:50:48;9.77;;;1.40;;
62584;SDS011;48643;51.670;5.808;2023-04-03T11:53:25;4.20;;;1.30;;
62584;SDS011;48643;51.670;5.808;2023-04-03T11:55:56;5.28;;;1.25;;
62584;SDS011;48643;51.670;5.808;2023-04-03T11:58:28;4.63;;;1.30;;
62584;SDS011;48643;51.670;5.808;2023-04-03T12:00:58;3.03;;;1.10;;
62584;SDS011;48643;51.670;5.808;2023-04-03T12:13:35;6.85;;;3.13;;
62584;SDS011;48643;51.670;5.808;2023-04-03T12:16:03;3.30;;;2.90;;
62584;SDS011;48643;51.670;5.808;2023-04-03T12:18:48;7.80;;;2.50;;
62584;SDS011;48643;51.670;5.808;2023-04-03T12:26:40;5.65;;;3.50;;
62584;SDS011;48643;51.670;5.808;2023-04-03T12:37:29;9.95;;;4.28;;
62584;SDS011;48643;51.670;5.808;2023-04-03T12:40:27;2.95;;;2.03;;
62584;SDS011;48643;51.670;5.808;2023-04-03T12:46:04;3.03;;;2.10;;
62584;SDS011;48643;51.670;5.808;2023-04-03T12:51:22;7.32;;;2.85;;
62584;SDS011;48643;51.670;5.808;2023-04-03T12:53:58;8.07;;;3.65;;
62584;SDS011;48643;51.670;5.808;2023-04-03T12:56:29;5.60;;;3.70;;
62584;SDS011;48643;51.670;5.808;2023-04-03T12:59:41;6.03;;;2.30;;
62584;SDS011;48643;51.670;5.808;2023-04-03T13:01:53;3.95;;;2.20;;
62584;SDS011;48643;51.670;5.808;2023-04-03T13:04:21;8.18;;;2.30;;
62584;SDS011;48643;51.670;5.808;2023-04-03T13:06:48;7.78;;;2.50;;
62584;SDS011;48643;51.670;5.808;2023-04-03T13:09:25;4.72;;;2.60;;
62584;SDS011;48643;51.670;5.808;2023-04-03T13:12:03;4.70;;;1.60;;
62584;SDS011;48643;51.670;5.808;2023-04-03T13:17:06;8.15;;;1.50;;
62584;SDS011;48643;51.670;5.808;2023-04-03T13:19:40;5.25;;;1.70;;
62584;SDS011;48643;51.670;5.808;2023-04-03T13:24:48;8.43;;;1.90;;
62584;SDS011;48643;51.670;5.808;2023-04-03T13:27:16;6.35;;;1.60;;
62584;SDS011;48643;51.670;5.808;2023-04-03T13:29:43;7.60;;;1.50;;
62584;SDS011;48643;51.670;5.808;2023-04-03T13:32:22;4.22;;;1.50;;
62584;SDS011;48643;51.670;5.808;2023-04-03T13:37:31;4.07;;;1.40;;
62584;SDS011;48643;51.670;5.808;2023-04-03T13:40:01;4.97;;;1.63;;
62584;SDS011;48643;51.670;5.808;2023-04-03T13:42:35;4.70;;;1.27;;
62584;SDS011;48643;51.670;5.808;2023-04-03T13:47:47;5.43;;;1.33;;
62584;SDS011;48643;51.670;5.808;2023-04-03T13:50:17;4.15;;;1.50;;
62584;SDS011;48643;51.670;5.808;2023-04-03T13:52:53;20.55;;;3.95;;
62584;SDS011;48643;51.670;5.808;2023-04-03T13:55:32;8.10;;;3.20;;
62584;SDS011;48643;51.670;5.808;2023-04-03T13:58:03;10.45;;;3.30;;
62584;SDS011;48643;51.670;5.808;2023-04-03T14:03:24;5.93;;;4.20;;
62584;SDS011;48643;51.670;5.808;2023-04-03T14:05:55;8.75;;;4.03;;
62584;SDS011;48643;51.670;5.808;2023-04-03T14:08:22;7.97;;;4.18;;
62584;SDS011;48643;51.670;5.808;2023-04-03T14:11:01;11.18;;;3.90;;
62584;SDS011;48643;51.670;5.808;2023-04-03T14:13:31;7.05;;;3.83;;
62584;SDS011;48643;51.670;5.808;2023-04-03T14:15:58;7.30;;;4.10;;
62584;SDS011;48643;51.670;5.808;2023-04-03T14:18:41;5.53;;;4.00;;
62584;SDS011;48643;51.670;5.808;2023-04-03T14:21:09;7.22;;;4.00;;
62584;SDS011;48643;51.670;5.808;2023-04-03T14:23:39;4.95;;;3.83;;
62584;SDS011;48643;51.670;5.808;2023-04-03T14:26:11;7.50;;;4.15;;
62584;SDS011;48643;51.670;5.808;2023-04-03T14:28:39;6.78;;;4.53;;
62584;SDS011;48643;51.670;5.808;2023-04-03T14:31:10;8.93;;;4.80;;
62584;SDS011;48643;51.670;5.808;2023-04-03T14:33:37;10.80;;;4.20;;
62584;SDS011;48643;51.670;5.808;2023-04-03T14:36:11;6.05;;;4.28;;
62584;SDS011;48643;51.670;5.808;2023-04-03T14:38:39;6.22;;;4.25;;
62584;SDS011;48643;51.670;5.808;2023-04-03T14:41:07;4.33;;;3.93;;
62584;SDS011;48643;51.670;5.808;2023-04-03T14:43:42;10.57;;;4.40;;
62584;SDS011;48643;51.670;5.808;2023-04-03T14:46:14;5.97;;;3.90;;
62584;SDS011;48643;51.670;5.808;2023-04-03T14:48:43;5.18;;;4.15;;
62584;SDS011;48643;51.670;5.808;2023-04-03T14:51:11;5.93;;;3.80;;
62584;SDS011;48643;51.670;5.808;2023-04-03T14:53:39;6.80;;;3.70;;
62584;SDS011;48643;51.670;5.808;2023-04-03T14:56:25;4.15;;;3.60;;
62584;SDS011;48643;51.670;5.808;2023-04-03T14:58:55;11.07;;;3.58;;
62584;SDS011;48643;51.670;5.808;2023-04-03T15:01:29;7.85;;;3.60;;
62584;SDS011;48643;51.670;5.808;2023-04-03T15:03:56;4.68;;;2.75;;
62584;SDS011;48643;51.670;5.808;2023-04-03T15:06:23;4.13;;;2.00;;
62584;SDS011;48643;51.670;5.808;2023-04-03T15:08:51;3.63;;;2.15;;
62584;SDS011;48643;51.670;5.808;2023-04-03T15:11:18;15.93;;;2.45;;
62584;SDS011;48643;51.670;5.808;2023-04-03T15:13:45;8.23;;;2.38;;
62584;SDS011;48643;51.670;5.808;2023-04-03T15:16:14;11.52;;;2.88;;
62584;SDS011;48643;51.670;5.808;2023-04-03T15:18:43;6.88;;;2.50;;
62584;SDS011;48643;51.670;5.808;2023-04-03T15:21:10;9.45;;;2.70;;
62584;SDS011;48643;51.670;5.808;2023-04-03T15:23:37;6.82;;;3.13;;
62584;SDS011;48643;51.670;5.808;2023-04-03T15:26:04;7.43;;;3.10;;
62584;SDS011;48643;51.670;5.808;2023-04-03T15:28:41;7.82;;;3.75;;
62584;SDS011;48643;51.670;5.808;2023-04-03T15:31:08;7.88;;;3.75;;
62584;SDS011;48643;51.670;5.808;2023-04-03T15:33:35;10.35;;;4.28;;
62584;SDS011;48643;51.670;5.808;2023-04-03T15:36:02;11.93;;;4.40;;
62584;SDS011;48643;51.670;5.808;2023-04-03T15:38:42;7.20;;;3.90;;
62584;SDS011;48643;51.670;5.808;2023-04-03T15:41:09;10.88;;;3.80;;
62584;SDS011;48643;51.670;5.808;2023-04-03T15:43:36;27.45;;;6.85;;
62584;SDS011;48643;51.670;5.808;2023-04-03T15:46:02;26.60;;;7.72;;
62584;SDS011;48643;51.670;5.808;2023-04-03T15:48:30;29.63;;;7.80;;
62584;SDS011;48643;51.670;5.808;2023-04-03T15:50:57;31.35;;;7.95;;
62584;SDS011;48643;51.670;5.808;2023-04-03T15:53:24;28.92;;;7.82;;
62584;SDS011;48643;51.670;5.808;2023-04-03T15:55:51;25.27;;;7.03;;
62584;SDS011;48643;51.670;5.808;2023-04-03T15:58:18;23.52;;;6.50;;
62584;SDS011;48643;51.670;5.808;2023-04-03T16:00:45;25.02;;;6.72;;
62584;SDS011;48643;51.670;5.808;2023-04-03T16:03:12;18.25;;;6.18;;
62584;SDS011;48643;51.670;5.808;2023-04-03T16:05:42;20.50;;;6.00;;
62584;SDS011;48643;51.670;5.808;2023-04-03T16:08:09;19.77;;;5.53;;
62584;SDS011;48643;51.670;5.808;2023-04-03T16:10:36;17.20;;;5.25;;
62584;SDS011;48643;51.670;5.808;2023-04-03T16:13:05;18.08;;;4.75;;
62584;SDS011;48643;51.670;5.808;2023-04-03T16:15:31;19.13;;;4.80;;
62584;SDS011;48643;51.670;5.808;2023-04-03T16:17:59;16.02;;;4.40;;
62584;SDS011;48643;51.670;5.808;2023-04-03T16:20:26;6.93;;;3.20;;
62584;SDS011;48643;51.670;5.808;2023-04-03T16:22:53;22.33;;;4.30;;
62584;SDS011;48643;51.670;5.808;2023-04-03T16:25:23;17.67;;;4.18;;
62584;SDS011;48643;51.670;5.808;2023-04-03T16:27:49;15.07;;;4.40;;
62584;SDS011;48643;51.670;5.808;2023-04-03T16:30:16;20.80;;;4.25;;
62584;SDS011;48643;51.670;5.808;2023-04-03T16:32:43;14.48;;;4.20;;
62584;SDS011;48643;51.670;5.808;2023-04-03T16:35:10;18.13;;;4.15;;
62584;SDS011;48643;51.670;5.808;2023-04-03T16:37:38;16.00;;;3.63;;
62584;SDS011;48643;51.670;5.808;2023-04-03T16:40:06;16.65;;;3.47;;
62584;SDS011;48643;51.670;5.808;2023-04-03T16:42:33;18.47;;;5.30;;
62584;SDS011;48643;51.670;5.808;2023-04-03T16:45:03;17.33;;;4.85;;
62584;SDS011;48643;51.670;5.808;2023-04-03T16:47:32;15.02;;;4.13;;